KCRE/CRE METAR and TAF weather

Enter ICAO airport designator
Station Type Date Time Source
KCRE METAR 2018/04/19 12:53 UTC NOAA

KCRE 191253Z 25013G21KT 10SM CLR 22/13 A2986 RMK AO1 SLP111 T02170133


Station Type Date Time Source
KCRE Decoded METAR 2018/04/19 12:53 UTC NOAA

N. MYRTLE BCH.GRAND STRAND, SC, United States (KCRE) 33-49N 078-43W 10M
Apr 19, 2018 - 08:53 AM EDT / 2018.04.19 1253 UTC
Wind: from the WSW (250 degrees) at 15 MPH (13 KT) gusting to 24 MPH (21 KT):0
Visibility: 10 mile(s):0
Sky conditions: clear
Temperature: 71.1 F (21.7 C)
Dew Point: 55.9 F (13.3 C)
Relative Humidity: 58%
Pressure (altimeter): 29.86 in. Hg (1011 hPa)
ob: KCRE 191253Z 25013G21KT 10SM CLR 22/13 A2986 RMK AO1 SLP111 T02170133
cycle: 13

Station Type Date Time Source
KCRE TAF 2018/04/19 12:27 UTC NOAA

TAF KCRE 191124Z 1912/2012 23013KT P6SM SKC
FM191500 25016KT P6SM SCT250
FM200000 31010KT P6SM SKC
FM200300 36009KT P6SM SKC


Example: see airport list